createdAt,value
2022-07-25T00:00:13.775Z,21.52
2022-07-25T00:05:16.551Z,21.48
2022-07-25T00:10:19.292Z,21.41
2022-07-25T00:15:23.403Z,21.32
2022-07-25T00:20:26.380Z,21.28
2022-07-25T00:25:29.108Z,21.18
2022-07-25T00:30:33.324Z,21.13
2022-07-25T00:35:36.074Z,21.11
2022-07-25T00:40:38.784Z,21.03
2022-07-25T00:45:42.847Z,20.98
2022-07-25T00:50:45.800Z,21.06
2022-07-25T00:55:48.809Z,21.07
2022-07-25T01:00:53.135Z,21.08
2022-07-25T01:05:56.062Z,21.06
2022-07-25T01:10:58.767Z,20.98
2022-07-25T01:16:02.940Z,20.87
2022-07-25T01:21:08.332Z,20.77
2022-07-25T01:26:11.253Z,20.63
2022-07-25T01:31:14.056Z,20.54
2022-07-25T01:36:18.385Z,20.46
2022-07-25T01:41:22.273Z,20.42
2022-07-25T01:46:25.733Z,20.35
2022-07-25T01:51:29.811Z,20.22
2022-07-25T01:56:32.623Z,20.19
2022-07-25T02:01:36.180Z,20.14
2022-07-25T02:06:41.465Z,20.12
2022-07-25T02:11:44.182Z,20.07
2022-07-25T02:16:46.955Z,20.08
2022-07-25T02:21:51.356Z,20.13
2022-07-25T02:26:54.179Z,20.14
2022-07-25T02:31:56.952Z,20.08
2022-07-25T02:37:01.079Z,20.02
2022-07-25T02:42:03.810Z,20.01
2022-07-25T02:47:06.819Z,19.98
2022-07-25T02:52:10.891Z,19.91
2022-07-25T02:57:13.858Z,19.84
2022-07-25T03:02:16.552Z,19.77
2022-07-25T03:07:20.690Z,19.73
2022-07-25T03:12:23.507Z,19.71
2022-07-25T03:17:26.296Z,19.65
2022-07-25T03:22:30.364Z,19.64
2022-07-25T03:27:33.187Z,19.63
2022-07-25T03:32:36.064Z,19.55
2022-07-25T03:37:40.106Z,19.56
2022-07-25T03:42:42.800Z,19.54
2022-07-25T03:47:45.658Z,19.53
2022-07-25T03:52:50.048Z,19.56
2022-07-25T03:57:52.724Z,19.58
2022-07-25T04:02:55.440Z,19.58
2022-07-25T04:07:59.500Z,19.62
2022-07-25T04:13:02.172Z,19.62
2022-07-25T04:18:05.321Z,19.62
2022-07-25T04:23:11.733Z,19.71
2022-07-25T04:28:14.418Z,19.81
2022-07-25T04:33:17.250Z,19.87
2022-07-25T04:38:21.238Z,19.93
2022-07-25T04:43:24.123Z,20.04
2022-07-25T04:48:27.130Z,20.11
2022-07-25T04:53:31.344Z,20.15
2022-07-25T04:58:34.308Z,20.27
2022-07-25T05:03:37.002Z,20.39
2022-07-25T05:08:41.012Z,20.50
2022-07-25T05:13:43.723Z,20.60
2022-07-25T05:18:46.665Z,20.70
2022-07-25T05:23:50.723Z,20.80
2022-07-25T05:28:53.602Z,20.96
2022-07-25T05:33:56.377Z,21.09
2022-07-25T05:39:00.497Z,21.25
2022-07-25T05:44:03.306Z,21.41
2022-07-25T05:49:09.278Z,21.53
2022-07-25T05:54:13.413Z,21.68
2022-07-25T05:59:16.140Z,21.85
2022-07-25T06:04:18.870Z,22.02
2022-07-25T06:09:23.327Z,22.16
2022-07-25T06:14:26.014Z,22.33
2022-07-25T06:19:32.877Z,22.51
2022-07-25T06:24:37.147Z,22.71
2022-07-25T06:29:40.001Z,22.92
2022-07-25T06:34:42.712Z,23.10
2022-07-25T06:39:46.938Z,23.30
2022-07-25T06:44:50.124Z,23.54
2022-07-25T06:49:53.141Z,23.81
2022-07-25T06:54:57.316Z,24.00
2022-07-25T07:00:00.286Z,24.20
2022-07-25T07:05:03.146Z,24.37
2022-07-25T07:10:08.274Z,24.54
2022-07-25T07:15:12.280Z,24.82
2022-07-25T07:20:15.040Z,25.01
2022-07-25T07:25:21.009Z,25.15
2022-07-25T07:30:29.848Z,25.37
2022-07-25T07:35:47.013Z,25.58
2022-07-25T07:40:51.076Z,25.74
2022-07-25T07:45:56.127Z,26.09
2022-07-25T07:51:03.404Z,26.23
2022-07-25T07:56:08.304Z,26.25
2022-07-25T08:01:11.066Z,26.38
2022-07-25T08:06:13.765Z,26.67
2022-07-25T08:11:18.066Z,26.87
2022-07-25T08:16:22.377Z,26.95
2022-07-25T08:21:25.071Z,27.01
2022-07-25T08:26:30.465Z,27.28
2022-07-25T08:31:33.404Z,27.64
2022-07-25T08:36:36.192Z,27.73
2022-07-25T08:41:42.033Z,28.07
2022-07-25T08:46:48.268Z,28.15
2022-07-25T08:51:51.660Z,28.27
2022-07-25T08:56:55.897Z,28.25
2022-07-25T09:02:02.187Z,28.45
2022-07-25T09:07:08.402Z,28.58
2022-07-25T09:12:12.643Z,28.87
2022-07-25T09:17:22.615Z,29.12
2022-07-25T09:22:26.797Z,29.13
2022-07-25T09:27:34.390Z,29.24
2022-07-25T09:32:37.113Z,29.32
2022-07-25T09:37:40.161Z,29.36
2022-07-25T09:42:46.228Z,29.43
2022-07-25T09:47:56.276Z,29.66
2022-07-25T09:53:00.721Z,29.83
2022-07-25T09:58:05.178Z,29.98
2022-07-25T10:03:27.553Z,30.09
2022-07-25T10:08:31.082Z,30.05
2022-07-25T10:13:38.222Z,29.93
2022-07-25T10:18:50.454Z,30.24
2022-07-25T10:24:05.016Z,30.42
2022-07-25T10:29:13.100Z,30.46
2022-07-25T10:34:15.906Z,30.59
2022-07-25T10:39:21.271Z,30.70
2022-07-25T10:44:30.443Z,30.82
2022-07-25T10:49:38.802Z,30.97
2022-07-25T10:54:43.426Z,31.06
2022-07-25T10:59:47.722Z,31.10
2022-07-25T11:04:59.746Z,31.22
2022-07-25T11:10:04.143Z,31.36
2022-07-25T11:15:12.302Z,31.37
2022-07-25T11:20:18.345Z,31.72
2022-07-25T11:25:22.479Z,31.84
2022-07-25T11:30:29.018Z,31.98
2022-07-25T11:35:33.596Z,32.23
2022-07-25T11:40:43.922Z,32.32
2022-07-25T11:45:57.510Z,32.56
2022-07-25T11:51:12.633Z,32.78
2022-07-25T12:01:45.262Z,33.48
2022-07-25T12:06:49.696Z,33.92
2022-07-25T12:12:03.175Z,34.37
2022-07-25T12:17:07.259Z,35.14
2022-07-25T12:22:10.265Z,36.01
2022-07-25T12:27:13.029Z,37.31
2022-07-25T12:32:17.199Z,38.21
2022-07-25T12:37:21.659Z,40.99
2022-07-25T12:42:24.471Z,45.03
2022-07-25T12:47:29.536Z,47.43
2022-07-25T12:52:32.575Z,47.38
2022-07-25T12:57:37.103Z,44.04
2022-07-25T13:02:41.683Z,41.39
2022-07-25T13:07:44.721Z,40.37
2022-07-25T13:12:47.659Z,40.01
2022-07-25T13:17:52.095Z,39.89
2022-07-25T13:22:54.938Z,39.74
2022-07-25T13:27:57.814Z,39.10
2022-07-25T13:33:01.950Z,39.40
2022-07-25T13:38:05.170Z,40.00
2022-07-25T13:43:08.160Z,39.93
2022-07-25T13:48:29.451Z,39.74
2022-07-25T13:53:33.013Z,37.97
2022-07-25T13:58:35.655Z,37.20
2022-07-25T14:03:40.569Z,36.80
2022-07-25T14:08:43.745Z,37.79
2022-07-25T14:13:47.765Z,39.50
2022-07-25T14:18:52.279Z,38.85
2022-07-25T14:23:55.186Z,44.27
2022-07-25T14:28:58.280Z,48.00
2022-07-25T14:34:02.333Z,43.81
2022-07-25T14:39:05.789Z,42.49
2022-07-25T14:44:09.457Z,42.40
2022-07-25T14:49:17.663Z,40.11
2022-07-25T14:54:20.560Z,38.46
2022-07-25T14:59:24.159Z,40.21
2022-07-25T15:04:28.587Z,38.02
2022-07-25T15:09:31.489Z,37.91
2022-07-25T15:14:34.593Z,37.49
2022-07-25T15:19:39.063Z,36.16
2022-07-25T15:25:13.973Z,35.15
2022-07-25T15:30:05.826Z,34.56
2022-07-25T15:35:10.426Z,34.25
2022-07-25T15:40:14.342Z,34.01
2022-07-25T15:45:32.545Z,33.96
2022-07-25T15:50:40.091Z,34.67
2022-07-25T15:55:43.377Z,38.71
2022-07-25T16:00:46.287Z,36.58
2022-07-25T16:05:50.438Z,35.19
2022-07-25T16:10:53.245Z,34.50
2022-07-25T16:15:56.234Z,34.19
2022-07-25T16:21:00.523Z,33.89
2022-07-25T16:26:03.320Z,33.52
2022-07-25T16:31:06.680Z,33.20
2022-07-25T16:36:11.713Z,32.91
2022-07-25T16:41:14.426Z,32.64
2022-07-25T16:46:17.516Z,31.19
2022-07-25T16:51:21.697Z,28.98
2022-07-25T16:56:24.537Z,27.01
2022-07-25T17:01:27.556Z,25.55
2022-07-25T17:06:32.080Z,23.65
2022-07-25T17:11:35.373Z,23.16
2022-07-25T17:16:38.210Z,23.53
2022-07-25T17:21:42.530Z,23.58
2022-07-25T17:26:45.346Z,23.69
2022-07-25T17:31:49.818Z,23.97
2022-07-25T17:36:57.216Z,24.24
2022-07-25T17:42:00.157Z,24.41
2022-07-25T17:47:04.195Z,24.65
2022-07-25T17:52:08.416Z,24.75
2022-07-25T17:57:11.442Z,24.80
2022-07-25T18:02:14.249Z,25.02
2022-07-25T18:07:18.401Z,25.36
2022-07-25T18:12:23.788Z,25.75
2022-07-25T18:17:29.121Z,26.12
2022-07-25T18:22:33.183Z,26.01
2022-07-25T18:27:36.324Z,25.96
2022-07-25T18:32:40.061Z,25.65
2022-07-25T18:37:44.625Z,25.48
2022-07-25T18:42:47.588Z,25.42
2022-07-25T18:47:55.604Z,25.34
2022-07-25T18:52:59.668Z,25.30
2022-07-25T18:58:02.434Z,25.24
2022-07-25T19:03:05.871Z,25.20
2022-07-25T19:08:10.181Z,25.17
2022-07-25T19:13:32.633Z,24.97
2022-07-25T19:18:36.204Z,24.92
2022-07-25T19:23:46.984Z,24.97
2022-07-25T19:28:53.078Z,24.99
2022-07-25T19:33:56.403Z,24.89
2022-07-25T19:39:01.223Z,24.60
2022-07-25T19:44:04.293Z,24.51
2022-07-25T19:49:07.951Z,24.51
2022-07-25T19:54:13.361Z,24.50
2022-07-25T19:59:16.287Z,24.49
2022-07-25T20:04:19.072Z,24.54
2022-07-25T20:09:23.438Z,24.46
2022-07-25T20:14:26.577Z,24.44
2022-07-25T20:19:29.583Z,24.41
2022-07-25T20:24:34.007Z,24.39
2022-07-25T20:29:36.911Z,24.39
2022-07-25T20:34:40.528Z,24.31
2022-07-25T20:39:44.777Z,24.37
2022-07-25T20:44:51.079Z,24.21
2022-07-25T20:49:53.885Z,24.06
2022-07-25T20:54:58.121Z,23.97
2022-07-25T21:00:00.824Z,24.00
2022-07-25T21:05:03.690Z,23.96
2022-07-25T21:10:09.597Z,23.79
2022-07-25T21:15:13.099Z,23.57
2022-07-25T21:20:16.534Z,23.76
2022-07-25T21:25:20.659Z,23.92
2022-07-25T21:30:23.442Z,23.95
2022-07-25T21:35:26.185Z,23.83
2022-07-25T21:40:30.329Z,23.79
2022-07-25T21:45:33.130Z,23.63
2022-07-25T21:50:43.570Z,23.54
2022-07-25T21:55:48.175Z,23.36
2022-07-25T22:00:51.570Z,23.23
2022-07-25T22:05:54.326Z,23.14
2022-07-25T22:10:58.568Z,23.08
2022-07-25T22:16:01.615Z,23.08
2022-07-25T22:21:04.707Z,23.08
2022-07-25T22:26:09.347Z,23.08
2022-07-25T22:31:13.646Z,23.10
2022-07-25T22:36:16.482Z,23.03
2022-07-25T22:41:20.663Z,22.96
2022-07-25T22:46:23.611Z,22.91
2022-07-25T22:51:27.078Z,22.86
2022-07-25T22:56:31.247Z,22.92
2022-07-25T23:01:34.286Z,22.86
2022-07-25T23:06:36.989Z,22.75
2022-07-25T23:11:41.567Z,22.70
2022-07-25T23:16:44.400Z,22.88
2022-07-25T23:21:47.217Z,23.00
2022-07-25T23:26:51.310Z,23.03
2022-07-25T23:31:54.116Z,23.05
2022-07-25T23:36:57.269Z,22.84
2022-07-25T23:42:01.608Z,22.83
2022-07-25T23:47:05.110Z,22.78
2022-07-25T23:52:13.111Z,22.69
2022-07-25T23:57:17.413Z,22.53
